sensor_id;sensor_type;location;lat;lon;timestamp;temperature;humidity
15930;DHT22;8064;51.142;4.780;2022-07-29T00:02:09;19.70;77.80
15930;DHT22;8064;51.142;4.780;2022-07-29T00:04:35;19.70;78.00
15930;DHT22;8064;51.142;4.780;2022-07-29T00:07:02;19.70;78.10
15930;DHT22;8064;51.142;4.780;2022-07-29T00:09:28;19.60;78.10
15930;DHT22;8064;51.142;4.780;2022-07-29T00:11:58;19.60;78.10
15930;DHT22;8064;51.142;4.780;2022-07-29T00:14:24;19.60;78.20
15930;DHT22;8064;51.142;4.780;2022-07-29T00:16:50;19.60;78.20
15930;DHT22;8064;51.142;4.780;2022-07-29T00:19:16;19.50;78.10
15930;DHT22;8064;51.142;4.780;2022-07-29T00:21:42;19.50;78.20
15930;DHT22;8064;51.142;4.780;2022-07-29T00:24:07;19.50;78.40
15930;DHT22;8064;51.142;4.780;2022-07-29T00:26:33;19.50;78.50
15930;DHT22;8064;51.142;4.780;2022-07-29T00:29:00;19.50;78.60
15930;DHT22;8064;51.142;4.780;2022-07-29T00:31:26;19.40;78.50
15930;DHT22;8064;51.142;4.780;2022-07-29T00:33:52;19.40;78.60
15930;DHT22;8064;51.142;4.780;2022-07-29T00:36:17;19.40;78.80
15930;DHT22;8064;51.142;4.780;2022-07-29T00:38:43;19.40;78.90
15930;DHT22;8064;51.142;4.780;2022-07-29T00:41:11;19.40;79.00
15930;DHT22;8064;51.142;4.780;2022-07-29T00:43:37;19.30;78.90
15930;DHT22;8064;51.142;4.780;2022-07-29T00:46:03;19.30;79.10
15930;DHT22;8064;51.142;4.780;2022-07-29T00:48:29;19.30;79.20
15930;DHT22;8064;51.142;4.780;2022-07-29T00:50:57;19.20;79.10
15930;DHT22;8064;51.142;4.780;2022-07-29T00:53:24;19.20;79.10
15930;DHT22;8064;51.142;4.780;2022-07-29T00:55:50;19.20;79.10
15930;DHT22;8064;51.142;4.780;2022-07-29T00:58:16;19.20;79.10
15930;DHT22;8064;51.142;4.780;2022-07-29T01:00:42;19.20;79.30
15930;DHT22;8064;51.142;4.780;2022-07-29T01:03:08;19.20;79.30
15930;DHT22;8064;51.142;4.780;2022-07-29T01:05:35;19.20;79.30
15930;DHT22;8064;51.142;4.780;2022-07-29T01:08:02;19.20;79.30
15930;DHT22;8064;51.142;4.780;2022-07-29T01:10:29;19.20;79.30
15930;DHT22;8064;51.142;4.780;2022-07-29T01:12:59;19.20;79.30
15930;DHT22;8064;51.142;4.780;2022-07-29T01:15:27;19.20;79.40
15930;DHT22;8064;51.142;4.780;2022-07-29T01:23:53;19.20;79.40
15930;DHT22;8064;51.142;4.780;2022-07-29T01:31:51;19.10;79.40
15930;DHT22;8064;51.142;4.780;2022-07-29T01:34:36;19.10;79.40
15930;DHT22;8064;51.142;4.780;2022-07-29T01:37:26;19.10;79.60
15930;DHT22;8064;51.142;4.780;2022-07-29T01:39:57;19.00;79.50
15930;DHT22;8064;51.142;4.780;2022-07-29T01:42:38;19.00;79.60
15930;DHT22;8064;51.142;4.780;2022-07-29T01:45:26;19.00;80.50
15930;DHT22;8064;51.142;4.780;2022-07-29T01:48:23;19.00;79.80
15930;DHT22;8064;51.142;4.780;2022-07-29T01:51:05;19.00;79.80
15930;DHT22;8064;51.142;4.780;2022-07-29T01:56:18;18.90;79.90
15930;DHT22;8064;51.142;4.780;2022-07-29T01:58:46;18.90;80.10
15930;DHT22;8064;51.142;4.780;2022-07-29T02:01:13;18.90;80.50
15930;DHT22;8064;51.142;4.780;2022-07-29T02:03:43;18.80;80.70
15930;DHT22;8064;51.142;4.780;2022-07-29T02:06:11;18.80;81.00
15930;DHT22;8064;51.142;4.780;2022-07-29T02:08:38;18.70;81.00
15930;DHT22;8064;51.142;4.780;2022-07-29T02:11:06;18.70;81.20
15930;DHT22;8064;51.142;4.780;2022-07-29T02:13:34;18.70;81.40
15930;DHT22;8064;51.142;4.780;2022-07-29T02:16:02;18.70;81.70
15930;DHT22;8064;51.142;4.780;2022-07-29T02:18:31;18.60;82.50
15930;DHT22;8064;51.142;4.780;2022-07-29T02:20:59;18.60;81.90
15930;DHT22;8064;51.142;4.780;2022-07-29T02:23:26;18.50;82.10
15930;DHT22;8064;51.142;4.780;2022-07-29T02:25:55;18.50;82.30
15930;DHT22;8064;51.142;4.780;2022-07-29T02:28:24;18.50;82.60
15930;DHT22;8064;51.142;4.780;2022-07-29T02:30:52;18.40;82.70
15930;DHT22;8064;51.142;4.780;2022-07-29T02:33:21;18.40;83.00
15930;DHT22;8064;51.142;4.780;2022-07-29T02:35:50;18.40;83.20
15930;DHT22;8064;51.142;4.780;2022-07-29T02:38:16;18.30;83.20
15930;DHT22;8064;51.142;4.780;2022-07-29T02:41:08;18.30;83.30
15930;DHT22;8064;51.142;4.780;2022-07-29T02:43:35;18.30;83.40
15930;DHT22;8064;51.142;4.780;2022-07-29T02:46:05;18.30;83.70
15930;DHT22;8064;51.142;4.780;2022-07-29T02:48:36;18.30;83.50
15930;DHT22;8064;51.142;4.780;2022-07-29T02:51:19;18.30;83.50
15930;DHT22;8064;51.142;4.780;2022-07-29T02:53:51;18.30;83.90
15930;DHT22;8064;51.142;4.780;2022-07-29T02:56:23;18.30;84.60
15930;DHT22;8064;51.142;4.780;2022-07-29T02:58:55;18.20;84.60
15930;DHT22;8064;51.142;4.780;2022-07-29T03:01:24;18.20;84.00
15930;DHT22;8064;51.142;4.780;2022-07-29T03:03:53;18.10;84.10
15930;DHT22;8064;51.142;4.780;2022-07-29T03:06:21;18.10;84.20
15930;DHT22;8064;51.142;4.780;2022-07-29T03:08:47;18.00;84.40
15930;DHT22;8064;51.142;4.780;2022-07-29T03:11:13;18.00;84.70
15930;DHT22;8064;51.142;4.780;2022-07-29T03:13:40;17.90;84.90
15930;DHT22;8064;51.142;4.780;2022-07-29T03:16:07;17.80;85.00
15930;DHT22;8064;51.142;4.780;2022-07-29T03:18:34;17.80;85.30
15930;DHT22;8064;51.142;4.780;2022-07-29T03:21:00;17.70;85.50
15930;DHT22;8064;51.142;4.780;2022-07-29T03:23:26;17.60;85.80
15930;DHT22;8064;51.142;4.780;2022-07-29T03:25:54;17.50;86.00
15930;DHT22;8064;51.142;4.780;2022-07-29T03:28:20;17.50;86.40
15930;DHT22;8064;51.142;4.780;2022-07-29T03:30:46;17.40;86.50
15930;DHT22;8064;51.142;4.780;2022-07-29T03:33:12;17.40;86.80
15930;DHT22;8064;51.142;4.780;2022-07-29T03:35:38;17.30;87.00
15930;DHT22;8064;51.142;4.780;2022-07-29T03:38:04;17.30;87.20
15930;DHT22;8064;51.142;4.780;2022-07-29T03:43:11;17.20;87.60
15930;DHT22;8064;51.142;4.780;2022-07-29T03:45:39;17.10;88.10
15930;DHT22;8064;51.142;4.780;2022-07-29T03:48:10;17.10;87.80
15930;DHT22;8064;51.142;4.780;2022-07-29T03:50:38;17.00;87.90
15930;DHT22;8064;51.142;4.780;2022-07-29T03:53:03;17.00;88.10
15930;DHT22;8064;51.142;4.780;2022-07-29T03:55:33;17.00;88.30
15930;DHT22;8064;51.142;4.780;2022-07-29T03:58:02;17.00;88.50
15930;DHT22;8064;51.142;4.780;2022-07-29T04:00:28;16.90;88.50
15930;DHT22;8064;51.142;4.780;2022-07-29T04:02:56;16.90;88.80
15930;DHT22;8064;51.142;4.780;2022-07-29T04:05:22;16.90;88.90
15930;DHT22;8064;51.142;4.780;2022-07-29T04:07:48;16.90;89.10
15930;DHT22;8064;51.142;4.780;2022-07-29T04:10:15;16.90;89.30
15930;DHT22;8064;51.142;4.780;2022-07-29T04:12:42;16.90;89.40
15930;DHT22;8064;51.142;4.780;2022-07-29T04:15:08;16.90;89.60
15930;DHT22;8064;51.142;4.780;2022-07-29T04:17:34;16.90;89.60
15930;DHT22;8064;51.142;4.780;2022-07-29T04:20:00;16.90;89.70
15930;DHT22;8064;51.142;4.780;2022-07-29T04:22:26;16.90;89.70
15930;DHT22;8064;51.142;4.780;2022-07-29T04:24:51;16.90;89.80
15930;DHT22;8064;51.142;4.780;2022-07-29T04:27:17;17.00;89.80
15930;DHT22;8064;51.142;4.780;2022-07-29T04:29:43;17.00;89.80
15930;DHT22;8064;51.142;4.780;2022-07-29T04:32:08;17.00;89.80
15930;DHT22;8064;51.142;4.780;2022-07-29T04:34:34;17.10;90.00
15930;DHT22;8064;51.142;4.780;2022-07-29T04:37:00;17.10;90.00
15930;DHT22;8064;51.142;4.780;2022-07-29T04:39:26;17.10;90.10
15930;DHT22;8064;51.142;4.780;2022-07-29T04:41:51;17.10;90.10
15930;DHT22;8064;51.142;4.780;2022-07-29T04:44:17;17.20;90.20
15930;DHT22;8064;51.142;4.780;2022-07-29T04:46:43;17.20;90.20
15930;DHT22;8064;51.142;4.780;2022-07-29T04:49:09;17.20;90.20
15930;DHT22;8064;51.142;4.780;2022-07-29T04:51:35;17.10;90.20
15930;DHT22;8064;51.142;4.780;2022-07-29T04:54:01;17.20;90.30
15930;DHT22;8064;51.142;4.780;2022-07-29T04:56:26;17.20;90.40
15930;DHT22;8064;51.142;4.780;2022-07-29T04:58:52;17.30;90.40
15930;DHT22;8064;51.142;4.780;2022-07-29T05:01:18;17.30;90.40
15930;DHT22;8064;51.142;4.780;2022-07-29T05:03:45;17.30;90.40
15930;DHT22;8064;51.142;4.780;2022-07-29T05:06:11;17.30;90.40
15930;DHT22;8064;51.142;4.780;2022-07-29T05:08:37;17.40;90.40
15930;DHT22;8064;51.142;4.780;2022-07-29T05:11:03;17.40;90.40
15930;DHT22;8064;51.142;4.780;2022-07-29T05:13:29;17.40;90.50
15930;DHT22;8064;51.142;4.780;2022-07-29T05:15:55;17.50;90.40
15930;DHT22;8064;51.142;4.780;2022-07-29T05:18:21;17.50;90.80
15930;DHT22;8064;51.142;4.780;2022-07-29T05:20:47;17.50;90.40
15930;DHT22;8064;51.142;4.780;2022-07-29T05:23:12;17.50;90.50
15930;DHT22;8064;51.142;4.780;2022-07-29T05:25:38;17.60;90.50
15930;DHT22;8064;51.142;4.780;2022-07-29T05:28:06;17.50;90.40
15930;DHT22;8064;51.142;4.780;2022-07-29T05:30:33;17.60;90.50
15930;DHT22;8064;51.142;4.780;2022-07-29T05:32:59;17.60;90.50
15930;DHT22;8064;51.142;4.780;2022-07-29T05:35:25;17.70;90.50
15930;DHT22;8064;51.142;4.780;2022-07-29T05:37:50;17.70;90.50
15930;DHT22;8064;51.142;4.780;2022-07-29T05:40:16;17.70;90.50
15930;DHT22;8064;51.142;4.780;2022-07-29T05:42:42;17.90;90.50
15930;DHT22;8064;51.142;4.780;2022-07-29T05:45:08;17.90;90.50
15930;DHT22;8064;51.142;4.780;2022-07-29T05:47:34;18.00;90.40
15930;DHT22;8064;51.142;4.780;2022-07-29T05:50:00;18.10;90.50
15930;DHT22;8064;51.142;4.780;2022-07-29T05:52:27;18.20;90.50
15930;DHT22;8064;51.142;4.780;2022-07-29T05:54:53;18.20;90.50
15930;DHT22;8064;51.142;4.780;2022-07-29T05:57:21;18.30;90.50
15930;DHT22;8064;51.142;4.780;2022-07-29T05:59:47;18.40;90.50
15930;DHT22;8064;51.142;4.780;2022-07-29T06:02:13;18.50;90.40
15930;DHT22;8064;51.142;4.780;2022-07-29T06:04:39;18.60;90.30
15930;DHT22;8064;51.142;4.780;2022-07-29T06:07:05;18.70;90.20
15930;DHT22;8064;51.142;4.780;2022-07-29T06:09:31;18.80;90.20
15930;DHT22;8064;51.142;4.780;2022-07-29T06:11:57;19.00;90.20
15930;DHT22;8064;51.142;4.780;2022-07-29T06:14:24;19.00;90.10
15930;DHT22;8064;51.142;4.780;2022-07-29T06:16:49;19.10;90.10
15930;DHT22;8064;51.142;4.780;2022-07-29T06:19:15;19.30;90.10
15930;DHT22;8064;51.142;4.780;2022-07-29T06:21:42;19.40;90.00
15930;DHT22;8064;51.142;4.780;2022-07-29T06:24:10;19.60;89.70
15930;DHT22;8064;51.142;4.780;2022-07-29T06:26:35;19.70;90.00
15930;DHT22;8064;51.142;4.780;2022-07-29T06:29:01;19.90;89.40
15930;DHT22;8064;51.142;4.780;2022-07-29T06:31:27;20.10;89.00
15930;DHT22;8064;51.142;4.780;2022-07-29T06:33:53;20.30;88.50
15930;DHT22;8064;51.142;4.780;2022-07-29T06:36:18;20.50;88.30
15930;DHT22;8064;51.142;4.780;2022-07-29T06:38:44;20.70;87.80
15930;DHT22;8064;51.142;4.780;2022-07-29T06:41:10;20.90;87.50
15930;DHT22;8064;51.142;4.780;2022-07-29T06:43:39;21.10;87.20
15930;DHT22;8064;51.142;4.780;2022-07-29T06:46:10;21.20;87.00
15930;DHT22;8064;51.142;4.780;2022-07-29T06:48:37;21.20;86.60
15930;DHT22;8064;51.142;4.780;2022-07-29T06:51:04;21.20;86.30
15930;DHT22;8064;51.142;4.780;2022-07-29T06:53:31;21.20;86.20
15930;DHT22;8064;51.142;4.780;2022-07-29T06:55:58;21.20;86.00
15930;DHT22;8064;51.142;4.780;2022-07-29T06:58:27;21.20;85.90
15930;DHT22;8064;51.142;4.780;2022-07-29T07:00:54;21.30;85.90
15930;DHT22;8064;51.142;4.780;2022-07-29T07:03:20;21.40;85.80
15930;DHT22;8064;51.142;4.780;2022-07-29T07:05:46;21.50;85.70
15930;DHT22;8064;51.142;4.780;2022-07-29T07:08:12;21.70;85.30
15930;DHT22;8064;51.142;4.780;2022-07-29T07:10:38;21.90;85.20
15930;DHT22;8064;51.142;4.780;2022-07-29T07:13:05;22.10;84.80
15930;DHT22;8064;51.142;4.780;2022-07-29T07:15:31;22.20;84.80
15930;DHT22;8064;51.142;4.780;2022-07-29T07:17:57;22.40;84.60
15930;DHT22;8064;51.142;4.780;2022-07-29T07:20:24;22.60;84.30
15930;DHT22;8064;51.142;4.780;2022-07-29T07:22:49;22.70;83.80
15930;DHT22;8064;51.142;4.780;2022-07-29T07:25:15;22.80;83.70
15930;DHT22;8064;51.142;4.780;2022-07-29T07:27:43;22.90;83.50
15930;DHT22;8064;51.142;4.780;2022-07-29T07:30:09;23.00;82.90
15930;DHT22;8064;51.142;4.780;2022-07-29T07:32:36;23.20;82.80
15930;DHT22;8064;51.142;4.780;2022-07-29T07:35:04;23.30;82.90
15930;DHT22;8064;51.142;4.780;2022-07-29T07:37:30;23.40;83.00
15930;DHT22;8064;51.142;4.780;2022-07-29T07:39:55;23.50;82.70
15930;DHT22;8064;51.142;4.780;2022-07-29T07:42:21;23.70;82.50
15930;DHT22;8064;51.142;4.780;2022-07-29T07:44:47;23.80;82.30
15930;DHT22;8064;51.142;4.780;2022-07-29T07:47:14;23.90;82.10
15930;DHT22;8064;51.142;4.780;2022-07-29T07:49:41;24.00;82.10
15930;DHT22;8064;51.142;4.780;2022-07-29T07:52:06;24.10;81.90
15930;DHT22;8064;51.142;4.780;2022-07-29T07:54:32;24.20;81.80
15930;DHT22;8064;51.142;4.780;2022-07-29T07:56:58;24.30;81.50
15930;DHT22;8064;51.142;4.780;2022-07-29T07:59:23;24.40;81.30
15930;DHT22;8064;51.142;4.780;2022-07-29T08:01:49;24.60;81.30
15930;DHT22;8064;51.142;4.780;2022-07-29T08:04:15;24.70;80.70
15930;DHT22;8064;51.142;4.780;2022-07-29T08:06:41;24.80;80.60
15930;DHT22;8064;51.142;4.780;2022-07-29T08:09:07;24.90;80.40
15930;DHT22;8064;51.142;4.780;2022-07-29T08:11:33;25.00;80.00
15930;DHT22;8064;51.142;4.780;2022-07-29T08:13:59;25.10;79.40
15930;DHT22;8064;51.142;4.780;2022-07-29T08:16:27;25.30;79.30
15930;DHT22;8064;51.142;4.780;2022-07-29T08:18:53;25.40;79.20
15930;DHT22;8064;51.142;4.780;2022-07-29T08:21:23;25.50;78.70
15930;DHT22;8064;51.142;4.780;2022-07-29T08:23:50;25.60;78.50
15930;DHT22;8064;51.142;4.780;2022-07-29T08:26:19;25.70;78.40
15930;DHT22;8064;51.142;4.780;2022-07-29T08:28:46;25.90;78.10
15930;DHT22;8064;51.142;4.780;2022-07-29T08:31:15;26.00;77.80
15930;DHT22;8064;51.142;4.780;2022-07-29T08:33:41;26.20;77.50
15930;DHT22;8064;51.142;4.780;2022-07-29T08:36:07;26.30;77.30
15930;DHT22;8064;51.142;4.780;2022-07-29T08:38:33;26.40;76.70
15930;DHT22;8064;51.142;4.780;2022-07-29T08:41:00;26.50;76.40
15930;DHT22;8064;51.142;4.780;2022-07-29T08:43:28;26.70;76.20
15930;DHT22;8064;51.142;4.780;2022-07-29T08:45:53;26.80;75.90
15930;DHT22;8064;51.142;4.780;2022-07-29T08:48:22;26.90;75.40
15930;DHT22;8064;51.142;4.780;2022-07-29T08:50:52;27.00;74.90
15930;DHT22;8064;51.142;4.780;2022-07-29T08:53:18;27.20;74.70
15930;DHT22;8064;51.142;4.780;2022-07-29T08:55:55;27.20;74.60
15930;DHT22;8064;51.142;4.780;2022-07-29T08:58:22;27.40;74.00
15930;DHT22;8064;51.142;4.780;2022-07-29T09:00:51;27.50;74.00
15930;DHT22;8064;51.142;4.780;2022-07-29T09:03:20;27.60;73.20
15930;DHT22;8064;51.142;4.780;2022-07-29T09:05:48;27.70;73.20
15930;DHT22;8064;51.142;4.780;2022-07-29T09:08:15;27.80;73.00
15930;DHT22;8064;51.142;4.780;2022-07-29T09:10:42;27.90;72.70
15930;DHT22;8064;51.142;4.780;2022-07-29T09:13:08;28.00;72.10
15930;DHT22;8064;51.142;4.780;2022-07-29T09:15:34;28.10;71.60
15930;DHT22;8064;51.142;4.780;2022-07-29T09:18:00;28.20;71.00
15930;DHT22;8064;51.142;4.780;2022-07-29T09:20:26;28.30;70.90
15930;DHT22;8064;51.142;4.780;2022-07-29T09:23:12;28.40;70.90
15930;DHT22;8064;51.142;4.780;2022-07-29T09:25:39;28.50;70.60
15930;DHT22;8064;51.142;4.780;2022-07-29T09:28:07;28.60;70.20
15930;DHT22;8064;51.142;4.780;2022-07-29T09:30:33;28.70;69.70
15930;DHT22;8064;51.142;4.780;2022-07-29T09:33:01;28.80;69.10
15930;DHT22;8064;51.142;4.780;2022-07-29T09:35:28;28.90;68.40
15930;DHT22;8064;51.142;4.780;2022-07-29T09:37:55;29.00;68.20
15930;DHT22;8064;51.142;4.780;2022-07-29T09:40:24;29.10;67.60
15930;DHT22;8064;51.142;4.780;2022-07-29T09:42:50;29.10;67.10
15930;DHT22;8064;51.142;4.780;2022-07-29T09:45:32;29.20;67.00
15930;DHT22;8064;51.142;4.780;2022-07-29T09:47:58;29.20;66.70
15930;DHT22;8064;51.142;4.780;2022-07-29T09:50:48;29.40;66.30
15930;DHT22;8064;51.142;4.780;2022-07-29T09:53:33;29.50;64.50
15930;DHT22;8064;51.142;4.780;2022-07-29T09:55:59;29.60;63.60
15930;DHT22;8064;51.142;4.780;2022-07-29T09:58:25;29.70;63.70
15930;DHT22;8064;51.142;4.780;2022-07-29T10:00:52;29.80;62.80
15930;DHT22;8064;51.142;4.780;2022-07-29T10:03:19;29.80;62.50
15930;DHT22;8064;51.142;4.780;2022-07-29T10:05:46;29.90;62.40
15930;DHT22;8064;51.142;4.780;2022-07-29T10:08:12;30.00;62.10
15930;DHT22;8064;51.142;4.780;2022-07-29T10:10:40;30.10;61.30
15930;DHT22;8064;51.142;4.780;2022-07-29T10:13:25;30.10;60.30
15930;DHT22;8064;51.142;4.780;2022-07-29T10:15:51;30.20;60.00
15930;DHT22;8064;51.142;4.780;2022-07-29T10:18:17;30.30;60.00
15930;DHT22;8064;51.142;4.780;2022-07-29T10:20:45;30.40;59.90
15930;DHT22;8064;51.142;4.780;2022-07-29T10:23:11;30.50;59.90
15930;DHT22;8064;51.142;4.780;2022-07-29T10:25:38;30.60;59.10
15930;DHT22;8064;51.142;4.780;2022-07-29T10:28:05;30.70;59.00
15930;DHT22;8064;51.142;4.780;2022-07-29T10:30:31;30.70;58.20
15930;DHT22;8064;51.142;4.780;2022-07-29T10:33:13;30.70;57.80
15930;DHT22;8064;51.142;4.780;2022-07-29T10:38:43;30.80;57.40
15930;DHT22;8064;51.142;4.780;2022-07-29T10:44:24;30.90;56.40
15930;DHT22;8064;51.142;4.780;2022-07-29T10:46:51;31.00;56.10
15930;DHT22;8064;51.142;4.780;2022-07-29T10:49:20;31.00;56.20
15930;DHT22;8064;51.142;4.780;2022-07-29T10:52:05;31.10;55.80
15930;DHT22;8064;51.142;4.780;2022-07-29T10:54:43;31.20;55.00
15930;DHT22;8064;51.142;4.780;2022-07-29T10:59:39;31.20;56.20
15930;DHT22;8064;51.142;4.780;2022-07-29T11:05:02;31.30;56.10
15930;DHT22;8064;51.142;4.780;2022-07-29T11:07:29;31.30;56.20
15930;DHT22;8064;51.142;4.780;2022-07-29T11:15:23;31.20;54.70
15930;DHT22;8064;51.142;4.780;2022-07-29T11:18:08;31.10;54.40
15930;DHT22;8064;51.142;4.780;2022-07-29T11:23:13;31.00;54.60
15930;DHT22;8064;51.142;4.780;2022-07-29T11:25:42;30.90;54.90
15930;DHT22;8064;51.142;4.780;2022-07-29T11:28:13;30.90;55.00
15930;DHT22;8064;51.142;4.780;2022-07-29T11:30:56;30.90;55.00
15930;DHT22;8064;51.142;4.780;2022-07-29T11:33:41;30.80;54.20
15930;DHT22;8064;51.142;4.780;2022-07-29T11:38:34;30.70;53.80
15930;DHT22;8064;51.142;4.780;2022-07-29T11:41:29;30.70;53.80
15930;DHT22;8064;51.142;4.780;2022-07-29T11:44:15;30.50;53.80
15930;DHT22;8064;51.142;4.780;2022-07-29T11:47:11;30.40;54.60
15930;DHT22;8064;51.142;4.780;2022-07-29T11:49:44;30.40;55.90
15930;DHT22;8064;51.142;4.780;2022-07-29T11:52:11;30.40;55.10
15930;DHT22;8064;51.142;4.780;2022-07-29T11:54:37;30.30;55.30
15930;DHT22;8064;51.142;4.780;2022-07-29T11:57:06;30.40;55.40
15930;DHT22;8064;51.142;4.780;2022-07-29T11:59:39;30.40;55.90
15930;DHT22;8064;51.142;4.780;2022-07-29T12:02:07;30.30;55.20
15930;DHT22;8064;51.142;4.780;2022-07-29T12:04:47;30.20;55.40
15930;DHT22;8064;51.142;4.780;2022-07-29T12:07:13;30.10;55.60
15930;DHT22;8064;51.142;4.780;2022-07-29T12:09:39;30.00;55.80
15930;DHT22;8064;51.142;4.780;2022-07-29T12:12:05;29.90;56.00
15930;DHT22;8064;51.142;4.780;2022-07-29T12:14:33;29.80;56.00
15930;DHT22;8064;51.142;4.780;2022-07-29T12:16:59;29.70;55.90
15930;DHT22;8064;51.142;4.780;2022-07-29T12:19:26;29.50;55.30
15930;DHT22;8064;51.142;4.780;2022-07-29T12:21:54;29.40;55.60
15930;DHT22;8064;51.142;4.780;2022-07-29T12:24:21;29.30;56.00
15930;DHT22;8064;51.142;4.780;2022-07-29T12:26:58;29.20;55.80
15930;DHT22;8064;51.142;4.780;2022-07-29T12:29:25;29.10;55.80
15930;DHT22;8064;51.142;4.780;2022-07-29T12:31:53;29.00;55.60
15930;DHT22;8064;51.142;4.780;2022-07-29T12:34:22;28.90;55.50
15930;DHT22;8064;51.142;4.780;2022-07-29T12:36:48;28.90;55.60
15930;DHT22;8064;51.142;4.780;2022-07-29T12:39:16;28.90;55.70
15930;DHT22;8064;51.142;4.780;2022-07-29T12:41:42;29.00;55.70
15930;DHT22;8064;51.142;4.780;2022-07-29T12:44:08;29.00;55.90
15930;DHT22;8064;51.142;4.780;2022-07-29T12:46:34;29.00;56.40
15930;DHT22;8064;51.142;4.780;2022-07-29T12:49:00;29.00;56.40
15930;DHT22;8064;51.142;4.780;2022-07-29T12:51:38;29.00;56.30
15930;DHT22;8064;51.142;4.780;2022-07-29T12:54:20;29.10;57.10
15930;DHT22;8064;51.142;4.780;2022-07-29T12:56:46;29.20;56.50
15930;DHT22;8064;51.142;4.780;2022-07-29T13:01:38;29.30;56.10
15930;DHT22;8064;51.142;4.780;2022-07-29T13:04:04;29.30;55.40
15930;DHT22;8064;51.142;4.780;2022-07-29T13:06:44;29.20;55.50
15930;DHT22;8064;51.142;4.780;2022-07-29T13:09:13;29.10;55.90
15930;DHT22;8064;51.142;4.780;2022-07-29T13:11:42;29.10;56.30
15930;DHT22;8064;51.142;4.780;2022-07-29T13:14:11;29.00;56.00
15930;DHT22;8064;51.142;4.780;2022-07-29T13:22:47;28.80;55.90
15930;DHT22;8064;51.142;4.780;2022-07-29T13:25:14;28.70;56.20
15930;DHT22;8064;51.142;4.780;2022-07-29T13:27:39;28.60;56.30
15930;DHT22;8064;51.142;4.780;2022-07-29T13:30:07;28.50;56.50
15930;DHT22;8064;51.142;4.780;2022-07-29T13:32:34;28.40;57.30
15930;DHT22;8064;51.142;4.780;2022-07-29T13:35:02;28.30;57.60
15930;DHT22;8064;51.142;4.780;2022-07-29T13:37:28;28.30;56.80
15930;DHT22;8064;51.142;4.780;2022-07-29T13:39:56;28.20;57.90
15930;DHT22;8064;51.142;4.780;2022-07-29T13:42:22;28.20;57.60
15930;DHT22;8064;51.142;4.780;2022-07-29T13:44:48;28.20;57.70
15930;DHT22;8064;51.142;4.780;2022-07-29T13:47:16;28.20;57.60
15930;DHT22;8064;51.142;4.780;2022-07-29T13:49:42;28.20;57.40
15930;DHT22;8064;51.142;4.780;2022-07-29T13:52:07;28.20;57.50
15930;DHT22;8064;51.142;4.780;2022-07-29T13:54:34;28.30;57.30
15930;DHT22;8064;51.142;4.780;2022-07-29T13:57:03;28.30;57.30
15930;DHT22;8064;51.142;4.780;2022-07-29T13:59:29;28.30;57.30
15930;DHT22;8064;51.142;4.780;2022-07-29T14:01:55;28.30;57.00
15930;DHT22;8064;51.142;4.780;2022-07-29T14:04:21;28.20;57.50
15930;DHT22;8064;51.142;4.780;2022-07-29T14:06:50;28.10;58.10
15930;DHT22;8064;51.142;4.780;2022-07-29T14:09:16;28.10;58.10
15930;DHT22;8064;51.142;4.780;2022-07-29T14:11:42;28.10;58.00
15930;DHT22;8064;51.142;4.780;2022-07-29T14:14:08;28.10;58.60
15930;DHT22;8064;51.142;4.780;2022-07-29T14:16:35;28.10;58.00
15930;DHT22;8064;51.142;4.780;2022-07-29T14:19:01;28.10;58.00
15930;DHT22;8064;51.142;4.780;2022-07-29T14:21:27;28.00;58.60
15930;DHT22;8064;51.142;4.780;2022-07-29T14:23:53;28.00;58.00
15930;DHT22;8064;51.142;4.780;2022-07-29T14:26:21;27.90;58.00
15930;DHT22;8064;51.142;4.780;2022-07-29T14:28:50;27.80;58.40
15930;DHT22;8064;51.142;4.780;2022-07-29T14:31:16;27.80;58.90
15930;DHT22;8064;51.142;4.780;2022-07-29T14:33:42;27.80;59.10
15930;DHT22;8064;51.142;4.780;2022-07-29T14:36:08;27.80;59.00
15930;DHT22;8064;51.142;4.780;2022-07-29T14:38:35;27.80;59.40
15930;DHT22;8064;51.142;4.780;2022-07-29T14:41:01;27.80;59.70
15930;DHT22;8064;51.142;4.780;2022-07-29T14:43:27;27.80;59.50
15930;DHT22;8064;51.142;4.780;2022-07-29T14:45:52;27.70;59.40
15930;DHT22;8064;51.142;4.780;2022-07-29T14:48:18;27.70;59.30
15930;DHT22;8064;51.142;4.780;2022-07-29T14:50:44;27.70;59.30
15930;DHT22;8064;51.142;4.780;2022-07-29T14:53:10;27.70;59.40
15930;DHT22;8064;51.142;4.780;2022-07-29T14:55:37;27.70;59.20
15930;DHT22;8064;51.142;4.780;2022-07-29T14:58:03;27.70;59.20
15930;DHT22;8064;51.142;4.780;2022-07-29T15:00:29;27.70;59.10
15930;DHT22;8064;51.142;4.780;2022-07-29T15:02:58;27.60;59.30
15930;DHT22;8064;51.142;4.780;2022-07-29T15:05:25;27.60;59.50
15930;DHT22;8064;51.142;4.780;2022-07-29T15:07:51;27.60;59.60
15930;DHT22;8064;51.142;4.780;2022-07-29T15:10:17;27.50;59.40
15930;DHT22;8064;51.142;4.780;2022-07-29T15:12:42;27.50;59.30
15930;DHT22;8064;51.142;4.780;2022-07-29T15:15:08;27.50;59.40
15930;DHT22;8064;51.142;4.780;2022-07-29T15:17:34;27.40;59.60
15930;DHT22;8064;51.142;4.780;2022-07-29T15:20:00;27.60;59.90
15930;DHT22;8064;51.142;4.780;2022-07-29T15:22:26;27.60;59.80
15930;DHT22;8064;51.142;4.780;2022-07-29T15:24:52;27.70;59.50
15930;DHT22;8064;51.142;4.780;2022-07-29T15:27:18;27.70;59.20
15930;DHT22;8064;51.142;4.780;2022-07-29T15:29:44;27.80;59.30
15930;DHT22;8064;51.142;4.780;2022-07-29T15:32:10;27.90;58.80
15930;DHT22;8064;51.142;4.780;2022-07-29T15:34:37;28.00;58.80
15930;DHT22;8064;51.142;4.780;2022-07-29T15:37:04;28.10;58.90
15930;DHT22;8064;51.142;4.780;2022-07-29T15:39:30;28.10;58.90
15930;DHT22;8064;51.142;4.780;2022-07-29T15:41:56;28.10;58.80
15930;DHT22;8064;51.142;4.780;2022-07-29T15:44:21;28.20;58.80
15930;DHT22;8064;51.142;4.780;2022-07-29T15:46:48;28.20;58.80
15930;DHT22;8064;51.142;4.780;2022-07-29T15:49:43;28.20;59.30
15930;DHT22;8064;51.142;4.780;2022-07-29T15:52:09;28.10;58.50
15930;DHT22;8064;51.142;4.780;2022-07-29T15:54:38;28.10;58.50
15930;DHT22;8064;51.142;4.780;2022-07-29T15:57:04;28.10;58.60
15930;DHT22;8064;51.142;4.780;2022-07-29T15:59:31;28.00;58.60
15930;DHT22;8064;51.142;4.780;2022-07-29T16:01:57;27.90;58.50
15930;DHT22;8064;51.142;4.780;2022-07-29T16:04:22;27.90;59.00
15930;DHT22;8064;51.142;4.780;2022-07-29T16:06:49;27.80;59.10
15930;DHT22;8064;51.142;4.780;2022-07-29T16:09:15;27.80;58.90
15930;DHT22;8064;51.142;4.780;2022-07-29T16:11:42;27.70;58.80
15930;DHT22;8064;51.142;4.780;2022-07-29T16:14:08;27.70;58.60
15930;DHT22;8064;51.142;4.780;2022-07-29T16:16:35;27.60;58.50
15930;DHT22;8064;51.142;4.780;2022-07-29T16:19:01;27.60;58.30
15930;DHT22;8064;51.142;4.780;2022-07-29T16:21:28;27.50;58.50
15930;DHT22;8064;51.142;4.780;2022-07-29T16:23:57;27.50;58.60
15930;DHT22;8064;51.142;4.780;2022-07-29T16:26:23;27.40;58.70
15930;DHT22;8064;51.142;4.780;2022-07-29T16:28:49;27.40;59.10
15930;DHT22;8064;51.142;4.780;2022-07-29T16:31:14;27.30;59.00
15930;DHT22;8064;51.142;4.780;2022-07-29T16:33:40;27.30;59.00
15930;DHT22;8064;51.142;4.780;2022-07-29T16:36:06;27.30;58.70
15930;DHT22;8064;51.142;4.780;2022-07-29T16:38:32;27.20;58.60